< < Back
Terminal Aerodrome Forecast


Current Version              Previous Versions:   1  2  3  4  5  6  7  8  9  

Terminal Aerodrome Forecast

105
FTUS44 KBMX 211700
TAFMGM
TAF
KMGM 211726Z 2118/2218 04004KT P6SM OVC010
     FM212000 07006KT P6SM OVC015
     FM220600 08005KT 5SM BR OVC008
     FM220900 09005KT 2SM BR OVC004=



Latest METAR

330
SAUS80 KWBC 220500 RRA
MTRMGM
METAR KMGM 220453Z 08008KT 10SM OVC006 12/09 A3004 RMK AO2 SLP171
T01170094


USA.gov is the U.S. government's official web portal to all federal, state and local government web resources and services.